Etusivu
METAR-TAF:

METAR-TAF

Lentoasemat :

Georgetown, Ascension

Leveyspiiri: 07-58S, Pituuspiiri: 014-24W, korkeus merenpinnasta: 86 m

Tämänhetkinen sää

Tämä raportti tehtiin 4 tuntia ja 47 minuuttia sitten, kello 09.50 UTC
Tuuli 9 kn kaakosta
Lämpötila 26°C
Kosteus 54%
Ilmanpaine 1017 hPa
Näkyvyys 10 km tai enemmän
Muutamia pilviä 2500 ft:n korkeudessa

METAR: FHAW 270950Z 13009KT 9999 FEW025 26/16 Q1017 BLU NOSIG

Aika: 14:37 (14:37 UTC)

Sääennuste

Tämä raportti tehtiin 7 tuntia ja 7 minuuttia sitten, kello 07.30 UTC
Ennuste voimassa 27. päivästä klo 09 UTC - 28. päivään klo 03 UTC
Tuuli 10 kn kaakosta
Näkyvyys 10 km tai enemmän
Hajanaisia pilviä 2500 ft:n korkeudessa
Todennäköisyys 30% :
Ajoittain
27. päivästä klo 18 UTC - 28. päivään klo 03 UTC
Hajanaisia pilviä 1700 ft:n korkeudessa

TAF: FHAW 270730Z 2709/2803 13010KT 9999 SCT025 PROB30 TEMPO 2718/2803 SCT017

Säähavainnot ja -ennusteet yli 4000 lentoasemalta (METAR- ja TAF-raportit).

Käytössä olevat sääasemat on merkitty karttaan keltaisilla ja punaisilla pisteillä.

Aseta hiiri pisteen päälle nähdäksesi sääaseman nimen.

Klikkaa sitten nähdäksesi säähavainnot ja -ennusteet.

Kartan vaihtaminen: klikkaa mustalla rastilla varustettuja vihreitä pisteitä, niin voit zoomata sisään; viivalla varustettua vihreää pistettä, niin voit zoomata ulos tai vihreitä nuolia, niin pääset viereisille kartoille.


METAR-TAF: